Latest Weather Observations for St George

IDQ60801

Issued at 7:35 pm EST Friday 25 April 2014 (issued every 30 minutes, with the page automatically refreshed every 10 minutes)

About weather observations | Map of weather stations | Latest weather observations for QLD | Other Formats
Station Details ID: 043109 Name: ST GEORGE AIRPORT Lat: -28.05 Lon: 148.59 Height: 198.5 m
Data from the previous 72 hours. | See also: Recent months at St George
Date/Time
EST
Temp
°C
App
Temp
°C
Dew
Point
Rel
Hum
%
Delta-T
°C
Wind Press
QNH
hPa
Press
MSL
hPa
Rain
since 9 am
mm
Dir
 
Spd
km/h
Gust
km/h
Spd
kts
Gust
kts
25/07:30pm 24.0 21.7 7.6 35 8.7 ENE 9 13 5 7 1016.1 - 0.0
25/07:00pm 24.6 22.0 7.7 34 9.0 ENE 11 17 6 9 1015.7 - 0.0
25/06:30pm 25.0 22.3 7.2 32 9.4 E 11 13 6 7 1015.4 - 0.0
25/06:00pm 26.0 23.8 8.0 32 9.7 E 9 11 5 6 1015.1 1014.4 0.0
25/05:30pm 27.6 25.9 8.5 30 10.5 E 7 9 4 5 1015.0 - 0.0
25/05:00pm 29.2 27.3 7.7 26 11.8 E 7 13 4 7 1014.6 - 0.0
25/04:30pm 29.7 27.4 7.6 25 12.1 NNE 9 13 5 7 1014.4 - 0.0
25/04:00pm 30.1 27.9 7.9 25 12.2 NE 9 15 5 8 1014.4 - 0.0
25/03:30pm 30.1 27.4 7.3 24 12.4 N 11 17 6 9 1014.4 - 0.0
25/03:00pm 29.9 27.7 7.7 25 12.2 SSW 9 17 5 9 1014.5 1013.8 0.0
25/02:30pm 30.0 27.5 8.4 26 12.0 NE 11 19 6 10 1014.6 - 0.0
25/02:00pm 30.0 28.5 8.4 26 12.0 W 6 11 3 6 1015.0 - 0.0
25/01:30pm 29.7 27.4 7.6 25 12.1 N 9 19 5 10 1015.4 - 0.0
25/01:00pm 29.0 26.6 7.0 25 11.9 S 9 17 5 9 1016.0 - 0.0
25/12:30pm 29.4 26.5 6.7 24 12.2 NNE 11 17 6 9 1016.7 - 0.0
25/12:00pm 29.2 27.4 9.3 29 11.2 NW 9 15 5 8 1017.2 1016.4 0.0
25/11:30am 28.1 26.5 10.3 33 10.1 N 9 15 5 8 1017.8 - 0.0
25/11:00am 26.6 24.9 9.9 35 9.3 N 9 15 5 8 1018.2 - 0.0
25/10:30am 25.4 23.9 10.4 39 8.4 NNW 9 15 5 8 1018.6 - 0.0
25/10:00am 24.7 24.4 10.2 40 8.1 ENE 2 7 1 4 1019.1 - 0.0
25/09:30am 23.1 21.9 10.2 44 7.1 SE 7 11 4 6 1019.5 - 0.0
25/09:00am 21.8 19.0 10.0 47 6.4 E 15 22 8 12 1019.1 1018.4 0.0
25/08:30am 20.6 18.2 10.1 51 5.7 E 13 19 7 10 1018.7 - 0.0
25/08:00am 19.5 17.6 10.5 56 4.9 ESE 11 19 6 10 1018.3 - 0.0
25/07:30am 18.9 17.2 9.7 55 4.9 N 9 13 5 7 1017.6 - 0.0
25/07:00am 18.5 17.6 10.6 60 4.3 SW 6 7 3 4 1017.2 - 0.0
25/06:30am 18.3 16.5 9.4 56 4.7 N 9 13 5 7 1016.7 - 0.0
25/06:00am 18.0 16.0 10.1 60 4.2 N 11 15 6 8 1016.0 1015.3 0.0
25/05:30am 16.9 14.4 9.6 62 3.9 NNE 13 15 7 8 1015.8 - 0.0
25/05:00am 16.3 14.9 9.5 64 3.6 N 7 9 4 5 1015.5 - 0.0
25/04:30am 16.5 14.9 10.1 66 3.4 N 9 11 5 6 1015.2 - 0.0
25/04:00am 16.0 14.6 9.7 66 3.3 NNE 7 11 4 6 1014.9 - 0.0
25/03:30am 16.3 14.9 9.5 64 3.6 N 7 9 4 5 1014.7 - 0.0
25/03:00am 17.3 16.1 9.5 60 4.1 N 6 7 3 4 1014.6 1013.9 0.0
25/02:30am 17.9 16.4 9.3 57 4.5 N 7 7 4 4 1014.7 - 0.0
25/02:00am 18.4 16.7 10.0 58 4.5 N 9 11 5 6 1014.8 - 0.0
25/01:30am 18.1 17.1 10.2 60 4.2 N 6 7 3 4 1014.9 - 0.0
25/01:00am 18.3 16.7 10.2 59 4.4 N 9 11 5 6 1015.0 - 0.0
25/12:30am 18.3 16.9 9.6 57 4.6 W 7 9 4 5 1015.5 - 0.0
25/12:00am 18.7 17.3 8.9 53 5.2 N 6 7 3 4 1015.2 1014.5 0.0
 
Date/Time
EST
Temp
°C
App
Temp
°C
Dew
Point
Rel
Hum
%
Delta-T
°C
Wind Press
QNH
hPa
Press
MSL
hPa
Rain
since 9 am
mm
Dir
 
Spd
km/h
Gust
km/h
Spd
kts
Gust
kts
24/11:30pm 19.4 17.5 9.0 51 5.5 NNE 9 13 5 7 1015.1 - 0.0
24/11:00pm 19.6 18.0 8.6 49 5.8 N 7 9 4 5 1015.3 - 0.0
24/10:30pm 20.2 18.3 9.2 49 5.9 NNE 9 11 5 6 1015.4 - 0.0
24/10:00pm 20.1 18.6 9.1 49 5.9 NNE 7 9 4 5 1015.6 - 0.0
24/09:30pm 19.4 17.7 8.4 49 5.8 NE 7 9 4 5 1015.5 - 0.0
24/09:00pm 20.5 18.9 8.8 47 6.2 NNE 7 9 4 5 1015.4 1014.7 0.0
24/08:30pm 21.1 19.4 8.4 44 6.7 NNE 7 9 4 5 1015.2 - 0.0
24/08:00pm 21.5 19.8 8.4 43 6.9 NNE 7 9 4 5 1014.9 - 0.0
24/07:30pm 22.3 20.8 8.4 41 7.4 NNE 6 7 3 4 1014.6 - 0.0
24/07:00pm 23.0 21.1 7.5 37 8.2 NNE 7 7 4 4 1014.2 - 0.0
24/06:30pm 23.6 21.5 6.8 34 8.8 ENE 7 9 4 5 1014.0 - 0.0
24/06:00pm 25.3 23.1 5.5 28 10.2 E 6 6 3 3 1013.6 1012.9 0.0
24/05:30pm 27.7 24.9 5.3 24 11.7 ENE 9 11 5 6 1013.2 - 0.0
24/05:00pm 29.0 26.6 5.1 22 12.5 ENE 7 11 4 6 1013.1 - 0.0
24/04:30pm 29.5 26.6 4.9 21 12.9 ENE 9 11 5 6 1013.1 - 0.0
24/04:00pm 29.8 26.9 4.4 20 13.2 NNE 9 15 5 8 1013.0 - 0.0
24/03:30pm 30.2 26.8 4.0 19 13.5 NNE 11 17 6 9 1012.9 - 0.0
24/03:00pm 30.5 27.2 4.3 19 13.6 NE 11 19 6 10 1013.1 1012.4 0.0
24/02:30pm 30.7 27.7 5.9 21 13.3 NNE 11 20 6 11 1013.3 - 0.0
24/02:00pm 29.9 27.4 6.5 23 12.6 N 9 19 5 10 1013.7 - 0.0
24/01:30pm 29.9 26.1 5.9 22 12.8 NNE 15 26 8 14 1014.0 - 0.0
24/01:00pm 30.0 26.0 6.6 23 12.6 NNE 17 24 9 13 1014.5 - 0.0
24/12:30pm 29.6 25.9 8.1 26 11.9 N 17 24 9 13 1014.8 - 0.0
24/12:00pm 29.0 25.1 8.7 28 11.3 N 19 26 10 14 1015.2 1014.5 0.0
24/11:30am 28.7 25.0 7.9 27 11.4 NNW 17 24 9 13 1015.9 - 0.0
24/11:00am 28.3 25.1 10.0 32 10.3 N 17 28 9 15 1016.6 - 0.0
24/10:30am 27.9 24.7 10.1 33 10.1 NNW 17 22 9 12 1017.0 - 0.0
24/10:00am 26.5 23.0 10.2 36 9.2 NNW 19 28 10 15 1017.2 - 0.0
24/09:30am 25.4 22.7 11.6 42 7.9 N 17 24 9 13 1017.1 - 0.0
24/09:00am 23.3 21.7 11.7 48 6.6 NNW 11 17 6 9 1017.1 1016.3 0.0
24/08:30am 22.2 20.2 11.6 51 6.0 NNW 13 17 7 9 1017.0 - 0.0
24/08:00am 21.7 20.2 12.0 54 5.5 NNW 11 17 6 9 1016.8 - 0.0
24/07:30am 19.2 18.7 12.5 65 3.8 N 7 11 4 6 1016.1 - 0.0
24/07:00am 17.9 16.8 12.1 69 3.2 N 9 11 5 6 1015.9 - 0.0
24/06:30am 16.7 15.4 11.4 71 2.9 N 9 11 5 6 1015.6 - 0.0
24/06:00am 16.0 14.2 11.0 72 2.7 NNE 11 15 6 8 1015.4 1014.7 0.0
24/05:30am 16.4 15.6 10.9 70 3.0 N 6 9 3 5 1015.3 - 0.0
24/05:00am 16.4 15.4 10.9 70 3.0 N 7 9 4 5 1015.1 - 0.0
24/04:30am 15.8 14.5 10.1 69 3.0 N 7 9 4 5 1014.9 - 0.0
24/04:00am 16.8 15.5 10.0 64 3.6 N 7 9 4 5 1014.9 - 0.0
24/03:30am 18.2 16.6 10.3 60 4.3 N 9 13 5 7 1014.9 - 0.0
24/03:00am 18.6 16.6 10.2 58 4.5 N 11 13 6 7 1014.8 1014.1 0.0
24/02:30am 19.0 17.0 10.0 56 4.8 N 11 15 6 8 1014.9 - 0.0
24/02:00am 19.1 17.0 9.9 55 4.9 N 11 13 6 7 1014.9 - 0.0
24/01:30am 19.5 17.5 10.2 55 5.0 N 11 17 6 9 1015.0 - 0.0
24/01:00am 19.4 17.4 10.1 55 5.0 N 11 15 6 8 1015.4 - 0.0
24/12:30am 20.4 17.7 10.2 52 5.6 N 15 19 8 10 1015.7 - 0.0
24/12:00am 19.5 18.1 10.8 57 4.8 N 9 13 5 7 1015.9 1015.2 0.0
 
Date/Time
EST
Temp
°C
App
Temp
°C
Dew
Point
Rel
Hum
%
Delta-T
°C
Wind Press
QNH
hPa
Press
MSL
hPa
Rain
since 9 am
mm
Dir
 
Spd
km/h
Gust
km/h
Spd
kts
Gust
kts
23/11:30pm 19.6 18.1 10.6 56 4.9 N 9 13 5 7 1016.0 - 0.0
23/11:00pm 19.5 18.1 11.0 58 4.7 NNE 9 11 5 6 1016.1 - 0.0
23/10:30pm 20.3 18.9 11.0 55 5.1 N 9 11 5 6 1016.1 - 0.0
23/10:00pm 20.8 19.5 11.2 54 5.3 NNE 9 13 5 7 1016.2 - 0.0
23/09:30pm 21.1 20.2 11.2 53 5.5 NNE 7 9 4 5 1016.2 - 0.0
23/09:00pm 21.5 20.4 10.6 50 6.0 NNE 7 9 4 5 1016.1 1015.4 0.0
23/08:30pm 22.5 21.4 10.6 47 6.6 NE 7 11 4 6 1015.9 - 0.0
23/08:00pm 22.4 20.9 10.5 47 6.6 NNE 9 13 5 7 1015.8 - 0.0
23/07:30pm 22.2 20.9 10.0 46 6.7 NNE 7 11 4 6 1015.6 - 0.0
23/07:00pm 22.4 20.9 9.2 43 7.1 NE 7 9 4 5 1015.3 - 0.0
23/06:30pm 23.2 21.5 8.5 39 7.9 NE 7 11 4 6 1015.1 - 0.0
23/06:00pm 24.6 22.8 8.1 35 8.9 NE 7 9 4 5 1014.9 1014.2 0.0
23/05:30pm 26.5 24.6 7.5 30 10.2 NNE 7 9 4 5 1014.7 - 0.0
23/05:00pm 28.5 27.7 6.6 25 11.7 CALM 0 0 0 0 1014.6 - 0.0
23/04:30pm 29.7 28.0 5.7 22 12.7 NNW 4 7 2 4 1014.5 - 0.0
23/04:00pm 29.4 26.7 5.5 22 12.6 NNE 9 15 5 8 1014.5 - 0.0
23/03:30pm 29.9 27.3 5.9 22 12.8 N 9 15 5 8 1014.6 - 0.0
23/03:00pm 29.2 26.3 6.6 24 12.1 NE 11 19 6 10 1014.8 1014.1 0.0
23/02:30pm 30.0 27.4 7.8 25 12.2 NNE 11 20 6 11 1014.9 - 0.0
23/02:00pm 29.5 26.7 6.8 24 12.2 NNE 11 20 6 11 1015.1 - 0.0
23/01:00pm 28.8 25.9 9.5 30 10.9 NE 15 20 8 11 1015.8 - 0.0
23/12:30pm 28.6 26.3 10.3 32 10.4 NNE 13 22 7 12 1016.6 - 0.0
23/12:00pm 28.0 26.2 10.7 34 9.9 N 11 20 6 11 1017.2 1016.4 0.0
23/11:30am 27.3 24.9 11.3 37 9.2 N 15 24 8 13 1017.7 - 0.0
23/11:00am 26.5 24.4 11.0 38 8.8 N 13 22 7 12 1018.2 - 0.0
23/10:30am 25.7 23.5 12.2 43 7.8 N 15 22 8 12 1018.5 - 0.0
23/10:00am 24.6 22.4 12.2 46 7.1 N 15 20 8 11 1018.8 - 0.0
23/09:30am 23.7 22.0 12.4 49 6.5 NNE 13 17 7 9 1019.0 - 0.0
23/09:00am 22.2 19.9 11.6 51 6.0 N 15 19 8 10 1019.1 1018.4 0.0
23/08:30am 20.9 18.4 11.0 53 5.5 NNE 15 19 8 10 1019.0 - 0.0
23/08:00am 19.6 17.8 10.9 57 4.8 NNE 11 17 6 9 1018.9 - 0.0
23/07:30am 17.7 17.4 11.3 66 3.5 N 4 9 2 5 1018.8 - 0.0
23/07:00am 15.4 14.0 10.8 74 2.5 N 9 9 5 5 1018.5 - 0.0
23/06:30am 14.5 14.5 9.9 74 2.4 CALM 0 0 0 0 1018.2 - 0.0
23/06:00am 15.0 14.6 9.8 71 2.7 NW 2 6 1 3 1018.0 1017.3 0.0
23/05:30am 16.2 15.0 10.3 68 3.1 N 7 11 4 6 1017.7 - 0.0
23/05:00am 15.9 14.2 10.0 68 3.1 SSE 9 13 5 7 1017.7 - 0.0
23/04:30am 17.6 16.4 10.2 62 4.0 N 7 11 4 6 1017.2 - 0.0
23/04:00am 17.1 15.8 10.0 63 3.8 N 7 9 4 5 1017.0 - 0.0
23/03:30am 17.1 15.1 10.0 63 3.8 N 11 13 6 7 1016.9 - 0.0
23/03:00am 17.0 14.9 9.9 63 3.8 N 11 13 6 7 1016.8 1016.0 0.0
23/02:30am 16.1 14.8 9.8 66 3.3 N 7 9 4 5 1016.8 - 0.0
23/02:00am 17.0 15.7 9.9 63 3.8 N 7 9 4 5 1016.9 - 0.0
23/01:30am 17.2 15.6 10.1 63 3.8 NNE 9 11 5 6 1017.1 - 0.0
23/01:00am 17.7 16.0 9.8 60 4.2 NNE 9 9 5 5 1017.2 - 0.0
23/12:30am 18.9 16.8 9.9 56 4.8 N 11 15 6 8 1017.3 - 0.0
23/12:00am 19.2 17.1 9.9 55 5.0 NNE 11 15 6 8 1017.2 1016.4 0.0
 
Date/Time
EST
Temp
°C
App
Temp
°C
Dew
Point
Rel
Hum
%
Delta-T
°C
Wind Press
QNH
hPa
Press
MSL
hPa
Rain
since 9 am
mm
Dir
 
Spd
km/h
Gust
km/h
Spd
kts
Gust
kts
22/11:30pm 20.0 17.6 9.9 52 5.5 N 13 15 7 8 1017.4 - 0.0
22/11:00pm 20.9 18.4 9.8 49 6.0 N 13 17 7 9 1017.5 - 0.0
22/10:30pm 21.3 18.9 10.2 49 6.1 N 13 17 7 9 1017.6 - 0.0
22/10:00pm 20.8 18.8 10.3 51 5.7 N 11 13 6 7 1017.6 - 0.0
22/09:30pm 21.0 19.1 10.5 51 5.8 N 11 13 6 7 1017.6 - 0.0
22/09:00pm 21.6 19.8 10.7 50 6.0 NNE 11 13 6 7 1017.5 1016.8 0.0
22/08:30pm 21.8 20.5 11.2 51 5.9 NNE 9 13 5 7 1017.3 - 0.0
22/08:00pm 21.9 20.6 11.3 51 5.9 NNE 9 13 5 7 1017.2 - 0.0

Other Formats:

Comma delimited format used in spreadsheet applications
http://www.bom.gov.au/fwo/IDQ60801/IDQ60801.94517.axf

JavaScript Object Notation format (JSON) in row-major order
http://www.bom.gov.au/fwo/IDQ60801/IDQ60801.94517.json